Time;durP1;ratioP1;P1;durP2;ratioP2;P2;SDS_P1;SDS_P2;PMS_P1;PMS_P2;Temp;Humidity;BMP_temperature;BMP_pressure;BME280_temperature;BME280_humidity;BME280_pressure;Samples;Min_cycle;Max_cycle;Signal;HPM_P1;HPM_P2
2022/05/15 00:01:37;;;;;;;0.00;0.00;;;;;;;;;;5038379;28;94788;-75
2022/05/15 00:04:04;;;;;;;0.00;0.00;;;;;;;;;;5039581;28;93965;-75
2022/05/15 00:06:31;;;;;;;1.00;0.93;;;;;;;;;;5043271;28;92287;-75
2022/05/15 00:08:58;;;;;;;0.00;0.00;;;;;;;;;;5034103;28;93010;-75
2022/05/15 00:11:25;;;;;;;0.10;0.10;;;;;;;;;;5040203;28;92235;-75
2022/05/15 00:13:51;;;;;;;0.00;0.00;;;;;;;;;;5040104;28;93300;-75
2022/05/15 00:16:18;;;;;;;0.00;0.00;;;;;;;;;;5040016;28;93541;-76
2022/05/15 00:18:44;;;;;;;0.00;0.00;;;;;;;;;;5040271;28;91598;-75
2022/05/15 00:21:11;;;;;;;0.00;0.00;;;;;;;;;;5040108;28;92575;-75
2022/05/15 00:23:38;;;;;;;0.00;0.00;;;;;;;;;;5021812;28;93544;-75
2022/05/15 00:26:04;;;;;;;0.00;0.00;;;;;;;;;;5038659;28;94821;-75
2022/05/15 00:28:31;;;;;;;0.00;0.00;;;;;;;;;;5042699;28;96066;-75
2022/05/15 00:30:57;;;;;;;0.00;0.00;;;;;;;;;;5039512;28;92303;-75
2022/05/15 00:33:24;;;;;;;0.00;0.00;;;;;;;;;;5039716;28;93277;-75
2022/05/15 00:35:52;;;;;;;0.00;0.00;;;;;;;;;;5039696;28;93561;-75
2022/05/15 00:38:19;;;;;;;0.00;0.00;;;;;;;;;;5039786;28;92352;-75
2022/05/15 00:40:46;;;;;;;0.00;0.00;;;;;;;;;;5021676;28;94510;-75
2022/05/15 00:43:14;;;;;;;0.00;0.00;;;;;;;;;;5021723;28;95471;-75
2022/05/15 00:45:40;;;;;;;0.00;0.00;;;;;;;;;;5039254;28;92362;-75
2022/05/15 00:48:07;;;;;;;0.00;0.00;;;;;;;;;;5021713;28;94339;-75
2022/05/15 00:50:34;;;;;;;0.00;0.00;;;;;;;;;;5040924;28;95445;-75
2022/05/15 00:53:04;;;;;;;0.00;0.00;;;;;;;;;;5038314;28;95036;-75
2022/05/15 00:55:40;;;;;;;0.00;0.00;;;;;;;;;;5014108;28;95142;-75
2022/05/15 00:58:13;;;;;;;0.03;0.03;;;;;;;;;;4999125;28;92292;-75
2022/05/15 01:00:40;;;;;;;0.00;0.00;;;;;;;;;;4999503;28;92801;-75
2022/05/15 01:03:08;;;;;;;0.00;0.00;;;;;;;;;;4999171;28;93756;-75
2022/05/15 01:05:37;;;;;;;0.00;0.00;;;;;;;;;;4998143;28;92195;-75
2022/05/15 01:08:07;;;;;;;0.00;0.00;;;;;;;;;;4998623;28;95832;-76
2022/05/15 01:10:42;;;;;;;0.00;0.00;;;;;;;;;;4999735;28;93321;-76
2022/05/15 01:13:10;;;;;;;0.00;0.00;;;;;;;;;;5001054;28;92342;-75
2022/05/15 01:15:37;;;;;;;0.00;0.00;;;;;;;;;;4995982;28;97998;-76
2022/05/15 01:18:04;;;;;;;0.00;0.00;;;;;;;;;;4997382;28;92456;-76
2022/05/15 01:20:31;;;;;;;0.00;0.00;;;;;;;;;;4999222;28;93285;-75
2022/05/15 01:22:57;;;;;;;0.00;0.00;;;;;;;;;;4997821;28;92853;-76
2022/05/15 01:25:29;;;;;;;0.00;0.00;;;;;;;;;;4998474;28;92438;-76
2022/05/15 01:28:02;;;;;;;0.00;0.00;;;;;;;;;;4981146;28;94804;-75
2022/05/15 01:30:30;;;;;;;0.00;0.00;;;;;;;;;;4997197;28;94966;-75
2022/05/15 01:32:56;;;;;;;0.00;0.00;;;;;;;;;;4997833;28;92083;-75
2022/05/15 01:35:26;;;;;;;0.10;0.10;;;;;;;;;;5000352;28;93670;-76
2022/05/15 01:38:00;;;;;;;0.00;0.00;;;;;;;;;;4996829;28;92266;-75
2022/05/15 01:40:26;;;;;;;0.08;0.08;;;;;;;;;;4995912;28;95992;-76
2022/05/15 01:42:53;;;;;;;0.00;0.00;;;;;;;;;;4997038;28;96137;-75
2022/05/15 01:45:20;;;;;;;0.00;0.00;;;;;;;;;;4997368;28;92493;-75
2022/05/15 01:47:46;;;;;;;0.00;0.00;;;;;;;;;;4997226;28;94467;-75
2022/05/15 01:50:13;;;;;;;0.00;0.00;;;;;;;;;;4980344;28;95022;-75
2022/05/15 01:52:40;;;;;;;0.00;0.00;;;;;;;;;;4997310;28;92344;-75
2022/05/15 01:55:08;;;;;;;0.00;0.00;;;;;;;;;;5000936;28;94795;-75
2022/05/15 01:57:34;;;;;;;0.00;0.00;;;;;;;;;;5020530;28;91662;-75
2022/05/15 02:00:01;;;;;;;0.00;0.00;;;;;;;;;;5020388;28;95518;-75
2022/05/15 02:02:39;;;;;;;0.00;0.00;;;;;;;;;;5037538;28;93339;-75
2022/05/15 02:05:07;;;;;;;0.00;0.00;;;;;;;;;;5017962;28;94843;-75
2022/05/15 02:07:34;;;;;;;0.00;0.00;;;;;;;;;;5018635;28;97266;-75
2022/05/15 02:10:01;;;;;;;0.00;0.00;;;;;;;;;;5017749;28;96353;-76
2022/05/15 02:12:28;;;;;;;0.00;0.00;;;;;;;;;;5017674;28;92743;-75
2022/05/15 02:14:55;;;;;;;0.00;0.00;;;;;;;;;;5017293;28;96128;-75
2022/05/15 02:17:21;;;;;;;0.00;0.00;;;;;;;;;;5022509;28;94378;-74
2022/05/15 02:19:48;;;;;;;0.00;0.00;;;;;;;;;;5020203;28;95421;-74
2022/05/15 02:22:15;;;;;;;0.00;0.00;;;;;;;;;;5020414;28;95395;-75
2022/05/15 02:24:42;;;;;;;0.00;0.00;;;;;;;;;;5019731;28;93440;-74
2022/05/15 02:27:09;;;;;;;0.00;0.00;;;;;;;;;;5020150;28;95290;-74
2022/05/15 02:29:35;;;;;;;0.00;0.00;;;;;;;;;;5016773;28;98428;-74
2022/05/15 02:32:01;;;;;;;0.00;0.00;;;;;;;;;;5018787;28;92546;-74
2022/05/15 02:34:28;;;;;;;0.00;0.00;;;;;;;;;;5037725;28;92283;-74
2022/05/15 02:36:55;;;;;;;0.00;0.00;;;;;;;;;;5019412;28;95806;-74
2022/05/15 02:39:22;;;;;;;0.00;0.00;;;;;;;;;;5040906;28;92262;-74
2022/05/15 02:41:48;;;;;;;0.00;0.00;;;;;;;;;;5037701;28;93661;-74
2022/05/15 02:44:14;;;;;;;0.00;0.00;;;;;;;;;;5019675;28;92360;-74
2022/05/15 02:46:41;;;;;;;0.00;0.00;;;;;;;;;;5020197;28;96190;-74
2022/05/15 02:51:54;;;;;;;0.00;0.00;;;;;;;;;;5019665;28;92347;-74
2022/05/15 02:54:21;;;;;;;0.00;0.00;;;;;;;;;;5035823;28;96867;-74
2022/05/15 02:56:47;;;;;;;0.00;0.00;;;;;;;;;;5019114;28;96156;-74
2022/05/15 02:59:14;;;;;;;0.00;0.00;;;;;;;;;;5019517;28;92255;-74
2022/05/15 03:01:41;;;;;;;0.00;0.00;;;;;;;;;;5040549;28;93284;-74
2022/05/15 03:04:07;;;;;;;0.00;0.00;;;;;;;;;;5033022;28;92275;-74
2022/05/15 03:06:35;;;;;;;0.00;0.00;;;;;;;;;;5019329;28;95504;-74
2022/05/15 03:09:01;;;;;;;0.00;0.00;;;;;;;;;;5036920;28;94896;-74
2022/05/15 03:11:28;;;;;;;3.55;0.73;;;;;;;;;;5037713;28;91510;-74
2022/05/15 03:13:55;;;;;;;0.00;0.00;;;;;;;;;;5019025;28;94252;-74
2022/05/15 03:16:22;;;;;;;0.00;0.00;;;;;;;;;;5018601;28;96520;-73
2022/05/15 03:18:49;;;;;;;0.00;0.00;;;;;;;;;;5017373;28;95818;-74
2022/05/15 03:21:29;;;;;;;0.00;0.00;;;;;;;;;;5020279;28;97227;-74
2022/05/15 03:24:08;;;;;;;0.00;0.00;;;;;;;;;;5022059;28;96530;-73
2022/05/15 03:26:39;;;;;;;0.00;0.00;;;;;;;;;;5019018;28;95314;-74
2022/05/15 03:29:06;;;;;;;0.13;0.13;;;;;;;;;;5036511;28;93593;-73
2022/05/15 03:31:36;;;;;;;0.00;0.00;;;;;;;;;;5018864;28;92356;-75
2022/05/15 03:34:04;;;;;;;0.00;0.00;;;;;;;;;;5018818;28;95393;-74
2022/05/15 03:36:30;;;;;;;0.00;0.00;;;;;;;;;;5019180;28;95599;-74
2022/05/15 03:38:57;;;;;;;0.00;0.00;;;;;;;;;;5036833;28;92312;-74
2022/05/15 03:41:23;;;;;;;0.00;0.00;;;;;;;;;;5036951;28;92988;-73
2022/05/15 03:43:50;;;;;;;0.00;0.00;;;;;;;;;;5016587;28;98654;-73
2022/05/15 03:46:16;;;;;;;0.00;0.00;;;;;;;;;;5040105;28;92415;-73
2022/05/15 03:48:43;;;;;;;0.00;0.00;;;;;;;;;;5018241;28;96136;-73
2022/05/15 03:51:10;;;;;;;0.00;0.00;;;;;;;;;;5018709;28;92458;-73
2022/05/15 03:53:37;;;;;;;0.00;0.00;;;;;;;;;;5036637;28;93442;-73
2022/05/15 03:56:04;;;;;;;0.00;0.00;;;;;;;;;;5018093;28;96149;-74
2022/05/15 03:58:31;;;;;;;0.00;0.00;;;;;;;;;;5036470;28;92389;-73
2022/05/15 04:00:58;;;;;;;0.00;0.00;;;;;;;;;;5037122;28;92889;-72
2022/05/15 04:03:24;;;;;;;0.75;0.75;;;;;;;;;;5036381;28;93716;-72
2022/05/15 04:05:50;;;;;;;0.00;0.00;;;;;;;;;;5039510;28;92332;-73
2022/05/15 04:08:17;;;;;;;0.00;0.00;;;;;;;;;;5034721;28;95910;-74
2022/05/15 04:10:43;;;;;;;0.00;0.00;;;;;;;;;;5036331;28;92277;-75
2022/05/15 04:13:10;;;;;;;0.00;0.00;;;;;;;;;;5018500;28;95780;-74
2022/05/15 04:15:36;;;;;;;0.00;0.00;;;;;;;;;;5018531;28;94682;-74
2022/05/15 04:18:04;;;;;;;0.00;0.00;;;;;;;;;;5018874;28;92309;-75
2022/05/15 04:20:31;;;;;;;0.00;0.00;;;;;;;;;;5018287;28;95198;-75
2022/05/15 04:22:58;;;;;;;0.00;0.00;;;;;;;;;;5018245;28;95484;-73
2022/05/15 04:25:24;;;;;;;0.00;0.00;;;;;;;;;;5036545;28;91622;-74
2022/05/15 04:27:51;;;;;;;0.00;0.00;;;;;;;;;;5042026;28;92356;-74
2022/05/15 04:30:19;;;;;;;0.00;0.00;;;;;;;;;;5039946;28;92531;-75
2022/05/15 04:32:46;;;;;;;0.00;0.00;;;;;;;;;;5020165;28;96146;-74
2022/05/15 04:35:13;;;;;;;0.00;0.00;;;;;;;;;;5021563;28;96277;-74
2022/05/15 04:37:39;;;;;;;0.35;0.35;;;;;;;;;;5039804;28;92365;-74
2022/05/15 04:40:06;;;;;;;0.00;0.00;;;;;;;;;;5039190;28;93784;-74
2022/05/15 04:42:33;;;;;;;0.00;0.00;;;;;;;;;;5021959;28;94031;-72
2022/05/15 04:44:59;;;;;;;0.00;0.00;;;;;;;;;;5039615;28;92251;-73
2022/05/15 04:47:26;;;;;;;0.00;0.00;;;;;;;;;;5039632;28;93340;-73
2022/05/15 04:49:52;;;;;;;0.00;0.00;;;;;;;;;;5025358;28;92313;-73
2022/05/15 04:52:18;;;;;;;0.00;0.00;;;;;;;;;;5039706;28;92345;-73
2022/05/15 04:54:45;;;;;;;0.00;0.00;;;;;;;;;;5020619;28;93684;-73
2022/05/15 04:57:11;;;;;;;0.00;0.00;;;;;;;;;;5037484;28;94875;-73
2022/05/15 04:59:38;;;;;;;0.00;0.00;;;;;;;;;;5039153;28;95685;-73
2022/05/15 05:02:04;;;;;;;0.00;0.00;;;;;;;;;;5039130;28;94045;-73
2022/05/15 05:04:30;;;;;;;0.00;0.00;;;;;;;;;;5039382;28;92222;-73
2022/05/15 05:06:57;;;;;;;0.00;0.00;;;;;;;;;;5039500;28;93080;-73
2022/05/15 05:09:26;;;;;;;0.03;0.03;;;;;;;;;;5038660;28;93963;-73
2022/05/15 05:11:52;;;;;;;0.00;0.00;;;;;;;;;;5042553;28;92195;-74
2022/05/15 05:14:19;;;;;;;0.00;0.00;;;;;;;;;;5036428;28;92438;-73
2022/05/15 05:16:45;;;;;;;1.52;1.17;;;;;;;;;;5039046;28;92322;-73
2022/05/15 05:19:11;;;;;;;0.00;0.00;;;;;;;;;;5039074;28;93252;-73
2022/05/15 05:21:38;;;;;;;0.00;0.00;;;;;;;;;;5037125;28;95925;-74
2022/05/15 05:24:04;;;;;;;0.00;0.00;;;;;;;;;;5038830;28;92349;-73
2022/05/15 05:26:31;;;;;;;0.22;0.20;;;;;;;;;;5039026;28;92723;-73
2022/05/15 05:28:57;;;;;;;0.00;0.00;;;;;;;;;;5038675;28;93893;-73
2022/05/15 05:31:23;;;;;;;0.10;0.10;;;;;;;;;;5038985;28;92264;-74
2022/05/15 05:33:50;;;;;;;0.00;0.00;;;;;;;;;;5041729;28;92647;-74
2022/05/15 05:36:16;;;;;;;0.20;0.20;;;;;;;;;;5020929;28;93613;-74
2022/05/15 05:38:45;;;;;;;0.10;0.10;;;;;;;;;;5020323;28;96019;-74
2022/05/15 05:41:11;;;;;;;0.03;0.03;;;;;;;;;;5038585;28;92911;-74
2022/05/15 05:43:38;;;;;;;0.10;0.10;;;;;;;;;;5038533;28;92250;-74
2022/05/15 05:46:04;;;;;;;2.03;0.63;;;;;;;;;;5037228;28;94660;-75
2022/05/15 05:48:31;;;;;;;0.10;0.10;;;;;;;;;;5038341;28;92837;-75
2022/05/15 05:50:57;;;;;;;0.20;0.20;;;;;;;;;;5037953;28;94129;-75
2022/05/15 05:53:24;;;;;;;0.08;0.08;;;;;;;;;;5041462;28;93636;-75
2022/05/15 05:55:50;;;;;;;0.10;0.10;;;;;;;;;;5038304;28;92335;-76
2022/05/15 05:58:17;;;;;;;0.20;0.20;;;;;;;;;;5038159;28;93112;-76
2022/05/15 06:00:43;;;;;;;0.68;0.40;;;;;;;;;;5038253;28;93423;-75
2022/05/15 06:05:54;;;;;;;0.10;0.10;;;;;;;;;;5038474;28;92288;-76
2022/05/15 06:08:21;;;;;;;0.00;0.00;;;;;;;;;;5037964;28;94005;-76
2022/05/15 06:10:48;;;;;;;2.83;0.55;;;;;;;;;;5036719;28;94724;-76
2022/05/15 06:13:14;;;;;;;1.08;0.65;;;;;;;;;;5020182;28;97770;-76
2022/05/15 06:15:41;;;;;;;0.40;0.40;;;;;;;;;;5040996;28;93645;-76
2022/05/15 06:18:08;;;;;;;0.20;0.20;;;;;;;;;;5037744;28;92836;-76
2022/05/15 06:20:34;;;;;;;0.00;0.00;;;;;;;;;;5038013;28;93497;-76
2022/05/15 06:23:00;;;;;;;0.10;0.10;;;;;;;;;;5020386;28;92423;-77
2022/05/15 06:25:27;;;;;;;0.10;0.10;;;;;;;;;;5038167;28;92758;-76
2022/05/15 06:27:53;;;;;;;0.95;0.93;;;;;;;;;;5038375;28;92685;-76
2022/05/15 06:30:20;;;;;;;0.10;0.10;;;;;;;;;;5037947;28;92259;-76
2022/05/15 06:32:47;;;;;;;0.10;0.10;;;;;;;;;;5037520;28;93312;-77
2022/05/15 06:35:14;;;;;;;0.25;0.25;;;;;;;;;;5035823;28;96482;-75
2022/05/15 06:37:41;;;;;;;0.00;0.00;;;;;;;;;;5040752;28;92310;-76
2022/05/15 06:40:08;;;;;;;0.13;0.13;;;;;;;;;;5037440;28;93765;-77
2022/05/15 06:42:35;;;;;;;3.30;1.27;;;;;;;;;;5037743;28;92225;-75
2022/05/15 06:45:05;;;;;;;0.82;0.82;;;;;;;;;;5037634;28;93223;-75
2022/05/15 06:47:34;;;;;;;0.10;0.10;;;;;;;;;;5037476;28;93446;-75
2022/05/15 06:50:00;;;;;;;0.10;0.10;;;;;;;;;;5036541;28;92272;-74
2022/05/15 06:52:27;;;;;;;0.10;0.10;;;;;;;;;;5020786;28;92965;-74
2022/05/15 06:54:53;;;;;;;0.10;0.10;;;;;;;;;;5037322;28;93697;-76
2022/05/15 06:57:29;;;;;;;0.20;0.20;;;;;;;;;;5015577;28;95968;-76
2022/05/15 06:59:56;;;;;;;0.10;0.10;;;;;;;;;;5018200;28;94802;-76
2022/05/15 07:02:27;;;;;;;0.10;0.10;;;;;;;;;;5017052;28;92307;-77
2022/05/15 07:04:53;;;;;;;0.20;0.20;;;;;;;;;;5017244;28;93278;-76
2022/05/15 07:07:20;;;;;;;19.00;0.63;;;;;;;;;;5016946;28;92175;-76
2022/05/15 07:09:47;;;;;;;0.20;0.20;;;;;;;;;;5016973;28;92317;-74
2022/05/15 07:12:13;;;;;;;0.10;0.10;;;;;;;;;;5017055;28;93370;-74
2022/05/15 07:14:40;;;;;;;0.17;0.17;;;;;;;;;;5016589;28;93231;-74
2022/05/15 07:17:07;;;;;;;0.70;0.32;;;;;;;;;;5017566;28;91519;-74
2022/05/15 07:19:39;;;;;;;0.10;0.10;;;;;;;;;;5016946;28;94071;-76
2022/05/15 07:22:06;;;;;;;0.22;0.22;;;;;;;;;;5018948;28;93850;-74
2022/05/15 07:24:32;;;;;;;0.00;0.00;;;;;;;;;;5015242;28;94653;-76
2022/05/15 07:26:58;;;;;;;0.20;0.20;;;;;;;;;;5016937;28;92889;-78
2022/05/15 07:29:25;;;;;;;0.10;0.10;;;;;;;;;;5015168;28;92278;-77
2022/05/15 07:31:52;;;;;;;0.10;0.10;;;;;;;;;;5016982;28;92950;-77
2022/05/15 07:34:19;;;;;;;0.45;0.45;;;;;;;;;;5016640;28;93996;-79
2022/05/15 07:36:50;;;;;;;0.10;0.10;;;;;;;;;;5016689;28;92282;-77
2022/05/15 07:39:18;;;;;;;0.10;0.10;;;;;;;;;;5016293;28;93796;-78
2022/05/15 07:41:44;;;;;;;0.20;0.20;;;;;;;;;;5019261;28;93499;-77
2022/05/15 07:44:10;;;;;;;0.10;0.10;;;;;;;;;;5020351;28;92261;-75
2022/05/15 07:46:37;;;;;;;0.10;0.10;;;;;;;;;;5016451;28;94993;-77
2022/05/15 07:49:07;;;;;;;0.20;0.20;;;;;;;;;;5015226;28;94734;-76
2022/05/15 07:51:34;;;;;;;0.10;0.10;;;;;;;;;;5015157;28;98719;-78
2022/05/15 07:54:01;;;;;;;0.10;0.10;;;;;;;;;;5015097;28;95935;-76
2022/05/15 07:56:28;;;;;;;0.08;0.08;;;;;;;;;;5023531;28;92351;-76
2022/05/15 07:58:54;;;;;;;0.10;0.10;;;;;;;;;;5019394;28;92843;-77
2022/05/15 08:01:21;;;;;;;0.10;0.10;;;;;;;;;;5019397;28;93077;-77
2022/05/15 08:03:47;;;;;;;0.10;0.10;;;;;;;;;;5043430;28;92348;-76
2022/05/15 08:09:02;;;;;;;0.10;0.10;;;;;;;;;;5040494;28;92412;-76
2022/05/15 08:11:28;;;;;;;0.45;0.30;;;;;;;;;;5040051;28;92734;-76
2022/05/15 08:14:00;;;;;;;0.28;0.28;;;;;;;;;;5037791;28;96909;-77
2022/05/15 08:16:27;;;;;;;0.10;0.10;;;;;;;;;;5039898;28;92161;-78
2022/05/15 08:24:24;;;;;;;0.10;0.10;;;;;;;;;;5040043;28;92297;-76
2022/05/15 08:26:51;;;;;;;0.20;0.20;;;;;;;;;;5042064;28;93412;-76
2022/05/15 08:29:18;;;;;;;0.10;0.10;;;;;;;;;;5039670;28;92291;-77
2022/05/15 08:31:44;;;;;;;0.20;0.20;;;;;;;;;;5040318;28;93938;-76
2022/05/15 08:34:12;;;;;;;0.20;0.20;;;;;;;;;;5022132;28;93838;-75
2022/05/15 08:36:41;;;;;;;0.32;0.32;;;;;;;;;;5040493;28;92238;-77
2022/05/15 08:39:09;;;;;;;0.10;0.10;;;;;;;;;;5020845;28;95060;-76
2022/05/15 08:41:48;;;;;;;0.10;0.10;;;;;;;;;;5039783;28;93167;-77
2022/05/15 08:44:21;;;;;;;0.10;0.10;;;;;;;;;;5039861;28;92201;-73
2022/05/15 08:46:50;;;;;;;0.22;0.22;;;;;;;;;;5040006;28;93673;-77
2022/05/15 08:49:29;;;;;;;0.10;0.10;;;;;;;;;;5024459;28;95569;-77
2022/05/15 08:52:08;;;;;;;0.10;0.10;;;;;;;;;;5021919;28;92757;-76
2022/05/15 08:54:39;;;;;;;0.20;0.20;;;;;;;;;;5038474;27;93182;-76
2022/05/15 08:57:08;;;;;;;0.10;0.10;;;;;;;;;;5039263;27;93162;-75
2022/05/15 08:59:38;;;;;;;0.73;0.52;;;;;;;;;;5038674;27;93254;-77
2022/05/15 09:02:05;;;;;;;0.15;0.15;;;;;;;;;;5039247;27;94338;-75
2022/05/15 09:04:32;;;;;;;0.10;0.10;;;;;;;;;;5037528;27;94672;-77
2022/05/15 09:07:05;;;;;;;1.15;1.13;;;;;;;;;;5021699;28;97277;-78
2022/05/15 09:13:00;;;;;;;0.25;0.25;;;;;;;;;;5040731;27;92312;-78
2022/05/15 09:15:31;;;;;;;0.10;0.10;;;;;;;;;;5040426;27;93666;-76
2022/05/15 09:18:01;;;;;;;0.22;0.22;;;;;;;;;;5020543;27;93208;-76
2022/05/15 09:20:47;;;;;;;0.55;0.55;;;;;;;;;;5038294;27;92301;-77
2022/05/15 09:23:25;;;;;;;0.10;0.10;;;;;;;;;;5038442;27;93443;-76
2022/05/15 09:25:56;;;;;;;0.10;0.10;;;;;;;;;;5041881;27;92427;-77
2022/05/15 09:28:26;;;;;;;0.10;0.10;;;;;;;;;;5038335;27;93387;-76
2022/05/15 09:30:55;;;;;;;0.28;0.28;;;;;;;;;;5036599;27;95969;-75
2022/05/15 09:33:35;;;;;;;0.20;0.20;;;;;;;;;;5038032;27;92412;-77
2022/05/15 09:36:19;;;;;;;0.15;0.15;;;;;;;;;;5043739;27;94539;-75
2022/05/15 09:38:47;;;;;;;0.10;0.10;;;;;;;;;;5038227;27;92434;-74
2022/05/15 09:44:43;;;;;;;0.52;0.52;;;;;;;;;;5039522;27;93373;-75
2022/05/15 09:47:20;;;;;;;0.88;0.65;;;;;;;;;;5020460;27;92554;-76
2022/05/15 09:49:54;;;;;;;0.25;0.25;;;;;;;;;;5021805;27;92578;-77
2022/05/15 09:52:24;;;;;;;0.30;0.30;;;;;;;;;;5037439;27;94249;-74
2022/05/15 09:54:50;;;;;;;0.13;0.13;;;;;;;;;;5037872;27;92346;-76
2022/05/15 09:57:24;;;;;;;0.32;0.32;;;;;;;;;;5035929;27;94850;-77
2022/05/15 10:00:00;;;;;;;0.20;0.20;;;;;;;;;;5040693;27;93859;-78
2022/05/15 10:02:42;;;;;;;0.25;0.25;;;;;;;;;;5037495;27;93431;-76
2022/05/15 10:05:14;;;;;;;0.25;0.25;;;;;;;;;;5037042;27;94964;-78
2022/05/15 10:07:46;;;;;;;0.10;0.10;;;;;;;;;;5037612;27;92386;-77
2022/05/15 10:10:16;;;;;;;0.28;0.28;;;;;;;;;;5038661;27;93919;-77
2022/05/15 10:12:45;;;;;;;0.20;0.20;;;;;;;;;;5037344;27;94389;-72
2022/05/15 10:15:13;;;;;;;0.10;0.10;;;;;;;;;;5038402;27;91569;-74
2022/05/15 10:17:44;;;;;;;0.32;0.32;;;;;;;;;;5019813;28;95156;-75
2022/05/15 10:20:11;;;;;;;0.10;0.10;;;;;;;;;;5040861;27;92678;-75
2022/05/15 10:22:49;;;;;;;0.17;0.17;;;;;;;;;;5036164;27;95282;-76
2022/05/15 10:25:36;;;;;;;0.20;0.20;;;;;;;;;;5037979;27;92759;-75
2022/05/15 10:28:21;;;;;;;0.20;0.20;;;;;;;;;;5038072;27;92220;-76
2022/05/15 10:31:07;;;;;;;0.30;0.30;;;;;;;;;;5019251;27;96457;-77
2022/05/15 10:33:36;;;;;;;0.20;0.20;;;;;;;;;;5037308;27;93204;-75
2022/05/15 10:36:09;;;;;;;0.10;0.10;;;;;;;;;;5020480;27;92471;-77
2022/05/15 10:38:35;;;;;;;1.08;1.00;;;;;;;;;;5037363;27;92677;-78
2022/05/15 10:41:14;;;;;;;0.10;0.10;;;;;;;;;;5042684;27;92516;-76
2022/05/15 10:43:47;;;;;;;0.20;0.20;;;;;;;;;;5022287;28;92389;-76
2022/05/15 10:46:44;;;;;;;0.20;0.20;;;;;;;;;;5015376;28;93975;-76
2022/05/15 10:49:20;;;;;;;0.20;0.20;;;;;;;;;;5013517;28;94763;-76
2022/05/15 10:51:46;;;;;;;1.45;0.30;;;;;;;;;;5015156;28;95828;-77
2022/05/15 10:57:29;;;;;;;0.10;0.10;;;;;;;;;;4998733;28;92491;-77
2022/05/15 10:59:58;;;;;;;0.20;0.20;;;;;;;;;;5015025;28;93260;-76
2022/05/15 11:02:43;;;;;;;0.10;0.10;;;;;;;;;;5015549;28;93243;-75
2022/05/15 11:05:39;;;;;;;0.10;0.10;;;;;;;;;;5014289;28;93328;-76
2022/05/15 11:08:22;;;;;;;1.00;1.00;;;;;;;;;;4999047;28;92684;-77
2022/05/15 11:11:09;;;;;;;0.93;0.85;;;;;;;;;;5014881;28;92510;-77
2022/05/15 11:13:47;;;;;;;0.20;0.20;;;;;;;;;;5014793;28;92852;-77
2022/05/15 11:16:20;;;;;;;0.13;0.13;;;;;;;;;;5013613;28;95769;-76
2022/05/15 11:18:46;;;;;;;0.40;0.40;;;;;;;;;;5036801;27;92323;-77
2022/05/15 11:21:31;;;;;;;0.10;0.10;;;;;;;;;;5036351;27;94612;-75
2022/05/15 11:24:01;;;;;;;0.10;0.10;;;;;;;;;;5036289;27;94130;-73
2022/05/15 11:26:34;;;;;;;0.45;0.40;;;;;;;;;;5039225;27;92349;-72
2022/05/15 11:29:04;;;;;;;0.20;0.20;;;;;;;;;;5036541;27;94285;-71
2022/05/15 11:31:34;;;;;;;0.10;0.10;;;;;;;;;;5039267;27;93723;-76
2022/05/15 11:34:08;;;;;;;0.10;0.10;;;;;;;;;;5036942;27;94489;-77
2022/05/15 11:36:41;;;;;;;0.13;0.13;;;;;;;;;;5039393;27;94850;-77
2022/05/15 11:39:11;;;;;;;0.30;0.30;;;;;;;;;;5040060;27;92379;-76
2022/05/15 11:41:38;;;;;;;0.10;0.10;;;;;;;;;;5038618;27;94741;-78
2022/05/15 11:44:06;;;;;;;0.10;0.10;;;;;;;;;;5039549;27;94680;-77
2022/05/15 11:46:44;;;;;;;1.85;0.52;;;;;;;;;;5025137;27;92606;-76
2022/05/15 11:49:30;;;;;;;0.30;0.30;;;;;;;;;;5039526;27;93431;-77
2022/05/15 11:52:16;;;;;;;0.10;0.10;;;;;;;;;;5040857;27;93091;-77
2022/05/15 11:54:48;;;;;;;0.20;0.20;;;;;;;;;;5042821;27;92402;-76
2022/05/15 11:57:40;;;;;;;0.10;0.10;;;;;;;;;;5006325;28;93338;-78
2022/05/15 12:00:09;;;;;;;0.10;0.10;;;;;;;;;;5000932;28;91564;-77
2022/05/15 12:02:41;;;;;;;1.45;0.60;;;;;;;;;;4999939;28;92595;-77
2022/05/15 12:05:28;;;;;;;0.10;0.10;;;;;;;;;;4998972;28;93373;-75
2022/05/15 12:07:59;;;;;;;0.20;0.20;;;;;;;;;;4997582;28;94753;-77
2022/05/15 12:10:35;;;;;;;0.20;0.20;;;;;;;;;;4999756;28;95910;-77
2022/05/15 12:13:01;;;;;;;0.20;0.20;;;;;;;;;;4999140;28;93980;-74
2022/05/15 12:15:37;;;;;;;0.10;0.10;;;;;;;;;;4999842;28;92305;-74
2022/05/15 12:18:19;;;;;;;0.15;0.15;;;;;;;;;;5002946;28;92677;-75
2022/05/15 12:20:48;;;;;;;0.10;0.10;;;;;;;;;;4999658;28;92262;-76
2022/05/15 12:23:17;;;;;;;0.10;0.10;;;;;;;;;;4999855;28;93716;-75
2022/05/15 12:25:52;;;;;;;0.20;0.20;;;;;;;;;;4999781;28;94518;-78
2022/05/15 12:31:18;;;;;;;0.30;0.30;;;;;;;;;;4999709;28;92395;-75
2022/05/15 12:34:07;;;;;;;0.10;0.10;;;;;;;;;;4997954;28;95781;-76
2022/05/15 12:36:36;;;;;;;0.10;0.10;;;;;;;;;;4998732;28;92490;-76
2022/05/15 12:39:05;;;;;;;0.15;0.15;;;;;;;;;;5002121;28;93421;-75
2022/05/15 12:41:36;;;;;;;0.10;0.10;;;;;;;;;;4999676;28;92403;-75
2022/05/15 12:44:05;;;;;;;0.20;0.20;;;;;;;;;;4999525;28;93419;-75
2022/05/15 12:46:34;;;;;;;0.15;0.15;;;;;;;;;;4999337;28;93642;-77
2022/05/15 12:49:00;;;;;;;0.10;0.10;;;;;;;;;;4999513;28;92158;-77
2022/05/15 12:51:31;;;;;;;0.10;0.10;;;;;;;;;;4999795;28;93797;-77
2022/05/15 12:53:59;;;;;;;0.10;0.10;;;;;;;;;;4999235;28;93942;-77
2022/05/15 12:56:29;;;;;;;0.55;0.22;;;;;;;;;;5008419;28;93432;-77
2022/05/15 12:58:58;;;;;;;0.20;0.20;;;;;;;;;;5037885;28;94765;-76
2022/05/15 13:01:26;;;;;;;0.20;0.20;;;;;;;;;;5042378;28;93673;-76
2022/05/15 13:03:56;;;;;;;0.13;0.13;;;;;;;;;;5039384;28;93400;-77
2022/05/15 13:06:27;;;;;;;0.10;0.10;;;;;;;;;;5037348;27;92446;-76
2022/05/15 13:08:57;;;;;;;0.30;0.30;;;;;;;;;;5038648;27;92150;-75
2022/05/15 13:11:30;;;;;;;0.25;0.25;;;;;;;;;;5040520;27;93669;-76
2022/05/15 13:13:58;;;;;;;0.10;0.10;;;;;;;;;;5038572;27;93647;-75
2022/05/15 13:16:29;;;;;;;0.10;0.10;;;;;;;;;;5039418;27;92942;-76
2022/05/15 13:18:56;;;;;;;0.20;0.20;;;;;;;;;;5039018;27;92799;-75
2022/05/15 13:21:25;;;;;;;0.20;0.20;;;;;;;;;;5040295;27;93661;-75
2022/05/15 13:23:52;;;;;;;0.45;0.45;;;;;;;;;;5040826;27;94687;-77
2022/05/15 13:26:27;;;;;;;0.20;0.20;;;;;;;;;;5038109;27;94856;-76
2022/05/15 13:28:55;;;;;;;1.02;0.68;;;;;;;;;;5038321;27;92575;-76
2022/05/15 13:31:21;;;;;;;0.10;0.10;;;;;;;;;;5039871;27;93218;-74
2022/05/15 13:33:50;;;;;;;0.10;0.10;;;;;;;;;;5038462;27;93533;-76
2022/05/15 13:36:17;;;;;;;0.10;0.10;;;;;;;;;;5038631;27;92231;-75
2022/05/15 13:44:25;;;;;;;0.82;0.45;;;;;;;;;;5037377;27;117448;-77
2022/05/15 13:47:00;;;;;;;0.10;0.10;;;;;;;;;;5040978;27;92920;-76
2022/05/15 13:49:36;;;;;;;0.10;0.10;;;;;;;;;;5036591;27;94787;-76
2022/05/15 13:52:21;;;;;;;0.10;0.10;;;;;;;;;;5022348;28;95841;-76
2022/05/15 13:54:47;;;;;;;0.47;0.32;;;;;;;;;;5037792;27;92539;-76
2022/05/15 13:57:14;;;;;;;0.17;0.17;;;;;;;;;;5037819;27;92360;-77
2022/05/15 13:59:42;;;;;;;0.25;0.25;;;;;;;;;;5041389;27;92754;-76
2022/05/15 14:02:14;;;;;;;0.10;0.10;;;;;;;;;;5040836;27;92900;-76
2022/05/15 14:04:42;;;;;;;0.17;0.17;;;;;;;;;;5037420;27;92318;-76
2022/05/15 14:07:09;;;;;;;0.47;0.45;;;;;;;;;;5037960;27;94862;-76
2022/05/15 14:09:43;;;;;;;0.10;0.10;;;;;;;;;;5040827;27;93560;-76
2022/05/15 14:12:11;;;;;;;0.20;0.20;;;;;;;;;;5037437;27;93704;-76
2022/05/15 14:14:46;;;;;;;0.10;0.10;;;;;;;;;;5017965;28;98731;-76
2022/05/15 14:17:14;;;;;;;0.28;0.22;;;;;;;;;;5036952;27;93557;-77
2022/05/15 14:19:51;;;;;;;0.10;0.10;;;;;;;;;;5037850;27;93769;-77
2022/05/15 14:22:18;;;;;;;0.28;0.28;;;;;;;;;;5041274;27;93183;-76
2022/05/15 14:24:44;;;;;;;0.10;0.10;;;;;;;;;;5037621;27;92232;-75
2022/05/15 14:27:10;;;;;;;0.20;0.20;;;;;;;;;;5037775;27;93323;-76
2022/05/15 14:29:39;;;;;;;0.10;0.10;;;;;;;;;;5036908;27;93373;-77
2022/05/15 14:32:08;;;;;;;0.10;0.10;;;;;;;;;;5040315;27;93228;-77
2022/05/15 14:34:35;;;;;;;0.90;0.32;;;;;;;;;;5037207;27;93351;-74
2022/05/15 14:37:01;;;;;;;0.40;0.40;;;;;;;;;;5037301;27;92301;-76
2022/05/15 14:39:28;;;;;;;0.10;0.10;;;;;;;;;;5035694;27;95600;-74
2022/05/15 14:41:58;;;;;;;0.10;0.10;;;;;;;;;;5036172;27;95659;-76
2022/05/15 14:44:25;;;;;;;0.10;0.10;;;;;;;;;;5036805;27;93126;-78
2022/05/15 14:46:54;;;;;;;0.10;0.10;;;;;;;;;;5037494;27;92576;-74
2022/05/15 14:49:22;;;;;;;0.13;0.13;;;;;;;;;;5019852;28;92917;-75
2022/05/15 14:51:57;;;;;;;0.10;0.10;;;;;;;;;;5040831;27;92328;-73
2022/05/15 14:54:24;;;;;;;0.57;0.40;;;;;;;;;;5036727;27;93947;-73
2022/05/15 14:56:52;;;;;;;0.10;0.10;;;;;;;;;;5036654;27;91756;-74
2022/05/15 14:59:21;;;;;;;5.38;0.85;;;;;;;;;;5037367;27;92798;-72
2022/05/15 15:01:48;;;;;;;0.10;0.10;;;;;;;;;;5037659;27;93813;-73
2022/05/15 15:04:15;;;;;;;0.10;0.10;;;;;;;;;;5035398;27;94687;-73
2022/05/15 15:06:41;;;;;;;0.10;0.10;;;;;;;;;;5036957;27;95711;-72
2022/05/15 15:09:08;;;;;;;0.10;0.10;;;;;;;;;;5018558;27;94197;-73
2022/05/15 15:11:36;;;;;;;0.25;0.25;;;;;;;;;;5018996;28;92369;-72
2022/05/15 15:14:06;;;;;;;0.15;0.15;;;;;;;;;;5021730;27;94428;-72
2022/05/15 15:16:35;;;;;;;0.17;0.17;;;;;;;;;;5019343;28;92435;-72
2022/05/15 15:19:02;;;;;;;0.10;0.10;;;;;;;;;;5036797;27;93312;-72
2022/05/15 15:21:29;;;;;;;0.10;0.10;;;;;;;;;;5038764;27;92682;-72
2022/05/15 15:23:56;;;;;;;0.10;0.10;;;;;;;;;;5035834;27;92340;-74
2022/05/15 15:26:23;;;;;;;0.20;0.20;;;;;;;;;;5033875;27;93398;-73
2022/05/15 15:28:50;;;;;;;0.20;0.20;;;;;;;;;;5034676;27;96341;-73